sensor_id;sensor_type;location;lat;lon;timestamp;pressure;altitude;pressure_sealevel;temperature;humidity
81990;BME280;71485;51.638;-0.182;2024-02-26T00:02:02;98638.37;;;23.45;25.14
81990;BME280;71485;51.638;-0.182;2024-02-26T00:04:26;98647.33;;;23.38;25.20
81990;BME280;71485;51.638;-0.182;2024-02-26T00:06:52;98644.69;;;23.50;25.30
81990;BME280;71485;51.638;-0.182;2024-02-26T00:09:20;98648.04;;;23.48;25.30
81990;BME280;71485;51.638;-0.182;2024-02-26T00:11:43;98648.01;;;23.18;25.38
81990;BME280;71485;51.638;-0.182;2024-02-26T00:14:09;98653.27;;;23.62;25.42
81990;BME280;71485;51.638;-0.182;2024-02-26T00:16:40;98655.11;;;23.29;25.34
81990;BME280;71485;51.638;-0.182;2024-02-26T00:19:00;98657.84;;;23.05;25.36
81990;BME280;71485;51.638;-0.182;2024-02-26T00:21:26;98664.81;;;23.23;25.42
81990;BME280;71485;51.638;-0.182;2024-02-26T00:23:55;98660.00;;;22.90;25.45
81990;BME280;71485;51.638;-0.182;2024-02-26T00:26:19;98666.58;;;23.41;25.39
81990;BME280;71485;51.638;-0.182;2024-02-26T00:28:47;98670.72;;;23.35;25.31
81990;BME280;71485;51.638;-0.182;2024-02-26T00:31:08;98675.85;;;22.85;25.26
81990;BME280;71485;51.638;-0.182;2024-02-26T00:33:37;98675.22;;;23.10;25.25
81990;BME280;71485;51.638;-0.182;2024-02-26T00:35:59;98679.86;;;22.83;25.35
81990;BME280;71485;51.638;-0.182;2024-02-26T00:38:27;98691.66;;;23.34;25.32
81990;BME280;71485;51.638;-0.182;2024-02-26T00:40:51;98685.31;;;23.35;25.18
81990;BME280;71485;51.638;-0.182;2024-02-26T00:43:19;98693.19;;;23.07;25.22
81990;BME280;71485;51.638;-0.182;2024-02-26T00:45:42;98694.85;;;22.75;25.25
81990;BME280;71485;51.638;-0.182;2024-02-26T00:48:08;98687.23;;;22.93;25.22
81990;BME280;71485;51.638;-0.182;2024-02-26T00:50:37;98697.83;;;23.19;25.18
81990;BME280;71485;51.638;-0.182;2024-02-26T00:52:59;98701.58;;;22.96;25.17
81990;BME280;71485;51.638;-0.182;2024-02-26T00:55:25;98707.03;;;22.98;25.01
81990;BME280;71485;51.638;-0.182;2024-02-26T00:57:51;98709.45;;;23.17;25.17
81990;BME280;71485;51.638;-0.182;2024-02-26T01:00:17;98712.36;;;22.67;25.13
81990;BME280;71485;51.638;-0.182;2024-02-26T01:02:42;98721.83;;;22.85;24.98
81990;BME280;71485;51.638;-0.182;2024-02-26T01:05:08;98722.07;;;22.84;25.06
81990;BME280;71485;51.638;-0.182;2024-02-26T01:07:35;98723.18;;;22.82;25.15
81990;BME280;71485;51.638;-0.182;2024-02-26T01:10:00;98725.96;;;23.05;25.05
81990;BME280;71485;51.638;-0.182;2024-02-26T01:12:24;98732.27;;;22.99;25.09
81990;BME280;71485;51.638;-0.182;2024-02-26T01:14:50;98736.70;;;22.97;24.91
81990;BME280;71485;51.638;-0.182;2024-02-26T01:17:16;98741.38;;;22.96;25.04
81990;BME280;71485;51.638;-0.182;2024-02-26T01:19:41;98749.01;;;22.75;25.10
81990;BME280;71485;51.638;-0.182;2024-02-26T01:22:07;98751.34;;;22.84;24.91
81990;BME280;71485;51.638;-0.182;2024-02-26T01:24:34;98756.38;;;22.81;24.96
81990;BME280;71485;51.638;-0.182;2024-02-26T01:27:00;98758.58;;;22.78;24.95
81990;BME280;71485;51.638;-0.182;2024-02-26T01:29:24;98765.19;;;22.68;25.12
81990;BME280;71485;51.638;-0.182;2024-02-26T01:31:50;98775.17;;;22.72;25.01
81990;BME280;71485;51.638;-0.182;2024-02-26T01:34:15;98777.08;;;22.74;24.98
81990;BME280;71485;51.638;-0.182;2024-02-26T01:36:41;98778.19;;;22.64;24.99
81990;BME280;71485;51.638;-0.182;2024-02-26T01:39:07;98784.30;;;22.57;25.11
81990;BME280;71485;51.638;-0.182;2024-02-26T01:41:32;98789.45;;;22.63;24.96
81990;BME280;71485;51.638;-0.182;2024-02-26T01:43:58;98794.27;;;22.85;24.95
81990;BME280;71485;51.638;-0.182;2024-02-26T01:46:24;98802.13;;;22.65;24.82
81990;BME280;71485;51.638;-0.182;2024-02-26T01:48:49;98807.02;;;22.71;24.77
81990;BME280;71485;51.638;-0.182;2024-02-26T01:51:16;98803.26;;;22.62;24.84
81990;BME280;71485;51.638;-0.182;2024-02-26T01:53:40;98817.10;;;22.12;24.85
81990;BME280;71485;51.638;-0.182;2024-02-26T01:56:08;98824.27;;;22.89;24.69
81990;BME280;71485;51.638;-0.182;2024-02-26T01:58:34;98821.89;;;22.63;24.71
81990;BME280;71485;51.638;-0.182;2024-02-26T02:01:02;98835.96;;;22.63;24.73
81990;BME280;71485;51.638;-0.182;2024-02-26T02:03:24;98842.57;;;22.83;24.77
81990;BME280;71485;51.638;-0.182;2024-02-26T02:05:49;98837.53;;;22.25;24.85
81990;BME280;71485;51.638;-0.182;2024-02-26T02:08:17;98847.75;;;22.48;24.74
81990;BME280;71485;51.638;-0.182;2024-02-26T02:10:42;98843.30;;;22.39;24.92
81990;BME280;71485;51.638;-0.182;2024-02-26T02:13:06;98850.90;;;22.46;24.76
81990;BME280;71485;51.638;-0.182;2024-02-26T02:15:32;98850.79;;;22.38;24.91
81990;BME280;71485;51.638;-0.182;2024-02-26T02:17:57;98852.71;;;22.22;25.08
81990;BME280;71485;51.638;-0.182;2024-02-26T02:20:24;98863.71;;;22.22;24.94
81990;BME280;71485;51.638;-0.182;2024-02-26T02:22:51;98866.84;;;22.51;24.80
81990;BME280;71485;51.638;-0.182;2024-02-26T02:25:15;98869.77;;;22.22;24.94
81990;BME280;71485;51.638;-0.182;2024-02-26T02:27:41;98867.99;;;22.17;24.89
81990;BME280;71485;51.638;-0.182;2024-02-26T02:30:07;98878.81;;;22.26;25.09
81990;BME280;71485;51.638;-0.182;2024-02-26T02:32:33;98880.05;;;22.15;25.15
81990;BME280;71485;51.638;-0.182;2024-02-26T02:34:57;98889.67;;;22.16;25.20
81990;BME280;71485;51.638;-0.182;2024-02-26T02:37:23;98890.79;;;22.22;25.08
81990;BME280;71485;51.638;-0.182;2024-02-26T02:39:50;98894.25;;;21.92;25.15
81990;BME280;71485;51.638;-0.182;2024-02-26T02:42:14;98902.99;;;21.96;24.95
81990;BME280;71485;51.638;-0.182;2024-02-26T02:44:40;98904.43;;;21.69;25.00
81990;BME280;71485;51.638;-0.182;2024-02-26T02:47:05;98912.99;;;22.18;25.00
81990;BME280;71485;51.638;-0.182;2024-02-26T02:49:32;98908.36;;;22.12;25.10
81990;BME280;71485;51.638;-0.182;2024-02-26T02:51:57;98915.37;;;22.14;25.01
81990;BME280;71485;51.638;-0.182;2024-02-26T02:54:22;98923.01;;;22.13;25.03
81990;BME280;71485;51.638;-0.182;2024-02-26T02:56:49;98926.92;;;22.11;25.04
81990;BME280;71485;51.638;-0.182;2024-02-26T02:59:16;98936.43;;;22.01;25.18
81990;BME280;71485;51.638;-0.182;2024-02-26T03:01:39;98940.76;;;21.97;25.18
81990;BME280;71485;51.638;-0.182;2024-02-26T03:04:07;98948.28;;;21.19;24.35
81990;BME280;71485;51.638;-0.182;2024-02-26T03:06:32;98950.57;;;22.14;23.47
81990;BME280;71485;51.638;-0.182;2024-02-26T03:08:59;98950.02;;;23.07;23.08
81990;BME280;71485;51.638;-0.182;2024-02-26T03:11:22;98964.36;;;23.00;23.65
81990;BME280;71485;51.638;-0.182;2024-02-26T03:13:52;98963.26;;;22.68;24.12
81990;BME280;71485;51.638;-0.182;2024-02-26T03:16:13;98974.88;;;22.58;24.46
81990;BME280;71485;51.638;-0.182;2024-02-26T03:18:39;98973.46;;;22.16;24.65
81990;BME280;71485;51.638;-0.182;2024-02-26T03:21:05;98972.32;;;21.85;25.06
81990;BME280;71485;51.638;-0.182;2024-02-26T03:23:30;98983.96;;;22.25;25.06
81990;BME280;71485;51.638;-0.182;2024-02-26T03:25:59;98987.60;;;22.15;25.04
81990;BME280;71485;51.638;-0.182;2024-02-26T03:28:22;98995.56;;;22.19;24.91
81990;BME280;71485;51.638;-0.182;2024-02-26T03:30:48;99000.72;;;22.05;25.22
81990;BME280;71485;51.638;-0.182;2024-02-26T03:33:13;98997.87;;;21.85;25.30
81990;BME280;71485;51.638;-0.182;2024-02-26T03:35:39;99017.38;;;21.62;25.34
81990;BME280;71485;51.638;-0.182;2024-02-26T03:38:11;99013.31;;;21.88;25.23
81990;BME280;71485;51.638;-0.182;2024-02-26T03:40:30;99028.05;;;21.67;25.08
81990;BME280;71485;51.638;-0.182;2024-02-26T03:42:57;99030.32;;;21.85;25.23
81990;BME280;71485;51.638;-0.182;2024-02-26T03:45:22;99031.92;;;21.77;25.28
81990;BME280;71485;51.638;-0.182;2024-02-26T03:47:47;99031.53;;;21.51;25.22
81990;BME280;71485;51.638;-0.182;2024-02-26T03:50:14;99034.25;;;21.73;25.22
81990;BME280;71485;51.638;-0.182;2024-02-26T03:52:39;99044.11;;;21.77;25.13
81990;BME280;71485;51.638;-0.182;2024-02-26T03:55:05;99045.97;;;21.80;25.11
81990;BME280;71485;51.638;-0.182;2024-02-26T03:57:30;99054.25;;;21.39;25.33
81990;BME280;71485;51.638;-0.182;2024-02-26T03:59:56;99051.75;;;21.55;25.42
81990;BME280;71485;51.638;-0.182;2024-02-26T04:02:23;99062.14;;;21.51;25.43
81990;BME280;71485;51.638;-0.182;2024-02-26T04:04:47;99068.01;;;21.55;25.33
81990;BME280;71485;51.638;-0.182;2024-02-26T04:07:13;99065.40;;;21.52;25.30
81990;BME280;71485;51.638;-0.182;2024-02-26T04:09:39;99075.63;;;21.46;25.35
81990;BME280;71485;51.638;-0.182;2024-02-26T04:12:05;99081.25;;;21.20;25.27
81990;BME280;71485;51.638;-0.182;2024-02-26T04:14:30;99087.60;;;21.32;25.41
81990;BME280;71485;51.638;-0.182;2024-02-26T04:16:55;99091.24;;;21.38;25.21
81990;BME280;71485;51.638;-0.182;2024-02-26T04:19:21;99093.01;;;21.43;25.17
81990;BME280;71485;51.638;-0.182;2024-02-26T04:21:48;99097.65;;;21.44;25.17
81990;BME280;71485;51.638;-0.182;2024-02-26T04:24:20;99096.11;;;21.50;25.09
81990;BME280;71485;51.638;-0.182;2024-02-26T04:26:39;99100.66;;;21.15;25.29
81990;BME280;71485;51.638;-0.182;2024-02-26T04:29:04;99106.30;;;21.16;25.21
81990;BME280;71485;51.638;-0.182;2024-02-26T04:31:29;99116.38;;;21.37;25.18
81990;BME280;71485;51.638;-0.182;2024-02-26T04:33:55;99118.73;;;21.37;25.19
81990;BME280;71485;51.638;-0.182;2024-02-26T04:36:21;99117.50;;;21.17;25.43
81990;BME280;71485;51.638;-0.182;2024-02-26T04:38:47;99123.90;;;20.89;25.52
81990;BME280;71485;51.638;-0.182;2024-02-26T04:41:12;99138.87;;;21.27;25.43
81990;BME280;71485;51.638;-0.182;2024-02-26T04:43:41;99138.38;;;21.20;25.11
81990;BME280;71485;51.638;-0.182;2024-02-26T04:46:04;99131.06;;;21.28;25.04
81990;BME280;71485;51.638;-0.182;2024-02-26T04:48:29;99137.79;;;21.24;25.06
81990;BME280;71485;51.638;-0.182;2024-02-26T04:50:56;99146.14;;;21.24;25.02
81990;BME280;71485;51.638;-0.182;2024-02-26T04:53:21;99154.81;;;21.28;25.03
81990;BME280;71485;51.638;-0.182;2024-02-26T04:55:46;99161.43;;;21.30;24.92
81990;BME280;71485;51.638;-0.182;2024-02-26T04:58:12;99159.57;;;21.28;24.95
81990;BME280;71485;51.638;-0.182;2024-02-26T05:00:39;99181.46;;;21.50;25.06
81990;BME280;71485;51.638;-0.182;2024-02-26T05:03:04;99176.57;;;21.16;25.17
81990;BME280;71485;51.638;-0.182;2024-02-26T05:05:29;99175.57;;;20.98;25.19
81990;BME280;71485;51.638;-0.182;2024-02-26T05:07:55;99197.98;;;20.91;25.32
81990;BME280;71485;51.638;-0.182;2024-02-26T05:10:22;99209.35;;;21.15;24.99
81990;BME280;71485;51.638;-0.182;2024-02-26T05:12:46;99198.48;;;21.08;25.04
81990;BME280;71485;51.638;-0.182;2024-02-26T05:15:13;99210.66;;;21.10;25.06
81990;BME280;71485;51.638;-0.182;2024-02-26T05:17:38;99219.79;;;21.16;25.00
81990;BME280;71485;51.638;-0.182;2024-02-26T05:20:04;99226.52;;;21.50;25.39
81990;BME280;71485;51.638;-0.182;2024-02-26T05:22:29;99232.12;;;21.30;25.48
81990;BME280;71485;51.638;-0.182;2024-02-26T05:24:57;99237.99;;;21.34;25.76
81990;BME280;71485;51.638;-0.182;2024-02-26T05:27:21;99242.37;;;21.23;26.09
81990;BME280;71485;51.638;-0.182;2024-02-26T05:29:46;99246.34;;;21.12;26.45
81990;BME280;71485;51.638;-0.182;2024-02-26T05:32:12;99249.25;;;21.01;26.77
81990;BME280;71485;51.638;-0.182;2024-02-26T05:34:38;99258.60;;;20.96;27.09
81990;BME280;71485;51.638;-0.182;2024-02-26T05:37:03;99265.71;;;21.34;27.26
81990;BME280;71485;51.638;-0.182;2024-02-26T05:39:34;99271.18;;;20.81;27.40
81990;BME280;71485;51.638;-0.182;2024-02-26T05:41:57;99281.43;;;20.63;27.75
81990;BME280;71485;51.638;-0.182;2024-02-26T05:44:28;99286.49;;;21.08;27.71
81990;BME280;71485;51.638;-0.182;2024-02-26T05:46:48;99298.62;;;20.83;27.77
81990;BME280;71485;51.638;-0.182;2024-02-26T05:49:17;99306.24;;;20.97;28.05
81990;BME280;71485;51.638;-0.182;2024-02-26T05:51:42;99306.65;;;21.16;27.96
81990;BME280;71485;51.638;-0.182;2024-02-26T05:54:04;99311.33;;;21.06;27.96
81990;BME280;71485;51.638;-0.182;2024-02-26T05:56:33;99324.81;;;20.91;28.28
81990;BME280;71485;51.638;-0.182;2024-02-26T05:58:57;99326.54;;;20.96;28.27
81990;BME280;71485;51.638;-0.182;2024-02-26T06:01:22;99334.86;;;20.92;28.37
81990;BME280;71485;51.638;-0.182;2024-02-26T06:03:53;99334.59;;;20.55;28.75
81990;BME280;71485;51.638;-0.182;2024-02-26T06:06:12;99344.84;;;20.39;28.46
81990;BME280;71485;51.638;-0.182;2024-02-26T06:08:39;99346.88;;;20.67;28.46
81990;BME280;71485;51.638;-0.182;2024-02-26T06:11:05;99354.42;;;20.51;28.78
81990;BME280;71485;51.638;-0.182;2024-02-26T06:13:33;99356.47;;;20.89;28.56
81990;BME280;71485;51.638;-0.182;2024-02-26T06:15:54;99362.96;;;20.30;29.13
81990;BME280;71485;51.638;-0.182;2024-02-26T06:18:20;99371.33;;;20.64;29.13
81990;BME280;71485;51.638;-0.182;2024-02-26T06:20:46;99367.20;;;20.44;29.31
81990;BME280;71485;51.638;-0.182;2024-02-26T06:23:11;99367.84;;;20.40;29.18
81990;BME280;71485;51.638;-0.182;2024-02-26T06:25:41;99374.29;;;20.49;29.12
81990;BME280;71485;51.638;-0.182;2024-02-26T06:28:05;99381.60;;;20.29;29.04
81990;BME280;71485;51.638;-0.182;2024-02-26T06:30:28;99386.91;;;20.33;28.96
81990;BME280;71485;51.638;-0.182;2024-02-26T06:32:54;99394.47;;;20.31;29.09
81990;BME280;71485;51.638;-0.182;2024-02-26T06:35:20;99403.67;;;20.22;29.12
81990;BME280;71485;51.638;-0.182;2024-02-26T06:37:45;99411.51;;;20.01;29.03
81990;BME280;71485;51.638;-0.182;2024-02-26T06:40:12;99416.18;;;20.53;28.55
81990;BME280;71485;51.638;-0.182;2024-02-26T06:42:37;99418.31;;;20.32;28.14
81990;BME280;71485;51.638;-0.182;2024-02-26T06:45:04;99427.85;;;20.17;28.04
81990;BME280;71485;51.638;-0.182;2024-02-26T06:47:28;99435.18;;;20.84;27.88
81990;BME280;71485;51.638;-0.182;2024-02-26T06:49:55;99439.93;;;20.63;27.50
81990;BME280;71485;51.638;-0.182;2024-02-26T06:52:21;99442.77;;;20.34;26.52
81990;BME280;71485;51.638;-0.182;2024-02-26T06:54:47;99449.61;;;21.53;25.84
81990;BME280;71485;51.638;-0.182;2024-02-26T06:57:11;99457.47;;;21.01;26.28
81990;BME280;71485;51.638;-0.182;2024-02-26T06:59:39;99467.48;;;20.79;26.61
81990;BME280;71485;51.638;-0.182;2024-02-26T07:02:02;99476.52;;;21.17;26.58
81990;BME280;71485;51.638;-0.182;2024-02-26T07:04:30;99468.53;;;20.71;26.69
81990;BME280;71485;51.638;-0.182;2024-02-26T07:06:53;99482.37;;;21.03;26.81
81990;BME280;71485;51.638;-0.182;2024-02-26T07:09:20;99486.15;;;21.02;26.71
81990;BME280;71485;51.638;-0.182;2024-02-26T07:11:45;99495.08;;;20.39;26.67
81990;BME280;71485;51.638;-0.182;2024-02-26T07:14:11;99500.00;;;21.13;26.58
81990;BME280;71485;51.638;-0.182;2024-02-26T07:16:36;99507.02;;;20.65;26.55
81990;BME280;71485;51.638;-0.182;2024-02-26T07:19:03;99515.12;;;20.94;26.49
81990;BME280;71485;51.638;-0.182;2024-02-26T07:21:29;99513.11;;;20.77;26.39
81990;BME280;71485;51.638;-0.182;2024-02-26T07:23:53;99521.57;;;20.57;26.53
81990;BME280;71485;51.638;-0.182;2024-02-26T07:26:20;99531.91;;;20.74;26.42
81990;BME280;71485;51.638;-0.182;2024-02-26T07:28:44;99529.05;;;20.83;26.36
81990;BME280;71485;51.638;-0.182;2024-02-26T07:31:10;99529.95;;;20.50;26.45
81990;BME280;71485;51.638;-0.182;2024-02-26T07:33:36;99544.45;;;20.65;26.32
81990;BME280;71485;51.638;-0.182;2024-02-26T07:36:02;99539.03;;;20.64;26.38
81990;BME280;71485;51.638;-0.182;2024-02-26T07:38:33;99543.51;;;21.13;26.29
81990;BME280;71485;51.638;-0.182;2024-02-26T07:41:02;99551.39;;;21.20;26.13
81990;BME280;71485;51.638;-0.182;2024-02-26T07:43:20;99560.42;;;20.84;26.14
81990;BME280;71485;51.638;-0.182;2024-02-26T07:45:45;99562.43;;;20.74;26.24
81990;BME280;71485;51.638;-0.182;2024-02-26T07:48:14;99567.05;;;20.81;26.11
81990;BME280;71485;51.638;-0.182;2024-02-26T07:50:37;99576.61;;;20.91;26.33
81990;BME280;71485;51.638;-0.182;2024-02-26T07:53:03;99578.49;;;20.84;26.36
81990;BME280;71485;51.638;-0.182;2024-02-26T07:55:27;99582.91;;;20.98;26.14
81990;BME280;71485;51.638;-0.182;2024-02-26T07:57:54;99589.04;;;21.20;26.23
81990;BME280;71485;51.638;-0.182;2024-02-26T08:00:23;99584.69;;;20.74;26.26
81990;BME280;71485;51.638;-0.182;2024-02-26T08:02:45;99588.94;;;20.52;26.19
81990;BME280;71485;51.638;-0.182;2024-02-26T08:05:11;99594.58;;;20.61;26.29
81990;BME280;71485;51.638;-0.182;2024-02-26T08:07:36;99598.86;;;21.13;26.31
81990;BME280;71485;51.638;-0.182;2024-02-26T08:10:02;99597.78;;;20.41;26.39
81990;BME280;71485;51.638;-0.182;2024-02-26T08:12:27;99598.66;;;20.67;26.44
81990;BME280;71485;51.638;-0.182;2024-02-26T08:14:53;99608.85;;;20.59;26.23
81990;BME280;71485;51.638;-0.182;2024-02-26T08:17:18;99608.08;;;20.74;26.08
81990;BME280;71485;51.638;-0.182;2024-02-26T08:19:44;99613.32;;;20.62;26.32
81990;BME280;71485;51.638;-0.182;2024-02-26T08:22:11;99618.27;;;20.79;26.24
81990;BME280;71485;51.638;-0.182;2024-02-26T08:24:36;99617.50;;;21.01;26.31
81990;BME280;71485;51.638;-0.182;2024-02-26T08:27:01;99624.65;;;20.61;26.12
81990;BME280;71485;51.638;-0.182;2024-02-26T08:29:26;99630.96;;;20.67;26.14
81990;BME280;71485;51.638;-0.182;2024-02-26T08:31:52;99638.22;;;21.02;25.97
81990;BME280;71485;51.638;-0.182;2024-02-26T08:34:18;99639.09;;;21.02;26.07
81990;BME280;71485;51.638;-0.182;2024-02-26T08:36:44;99654.38;;;20.74;26.21
81990;BME280;71485;51.638;-0.182;2024-02-26T08:39:12;99650.66;;;20.70;26.09
81990;BME280;71485;51.638;-0.182;2024-02-26T08:41:36;99659.27;;;21.21;26.09
81990;BME280;71485;51.638;-0.182;2024-02-26T08:44:01;99665.57;;;20.97;26.23
81990;BME280;71485;51.638;-0.182;2024-02-26T08:46:26;99669.00;;;21.03;26.12
81990;BME280;71485;51.638;-0.182;2024-02-26T08:48:53;99673.25;;;20.84;26.01
81990;BME280;71485;51.638;-0.182;2024-02-26T08:51:18;99671.82;;;20.86;26.01
81990;BME280;71485;51.638;-0.182;2024-02-26T08:53:43;99678.93;;;20.88;26.21
81990;BME280;71485;51.638;-0.182;2024-02-26T08:56:12;99682.65;;;21.15;26.19
81990;BME280;71485;51.638;-0.182;2024-02-26T08:58:38;99689.12;;;21.17;26.19
81990;BME280;71485;51.638;-0.182;2024-02-26T09:01:00;99690.37;;;21.19;26.39
81990;BME280;71485;51.638;-0.182;2024-02-26T09:03:26;99692.38;;;20.99;26.64
81990;BME280;71485;51.638;-0.182;2024-02-26T09:05:52;99693.37;;;21.03;27.26
81990;BME280;71485;51.638;-0.182;2024-02-26T09:08:18;99697.11;;;21.31;27.64
81990;BME280;71485;51.638;-0.182;2024-02-26T09:10:43;99699.59;;;21.28;27.94
81990;BME280;71485;51.638;-0.182;2024-02-26T09:13:08;99702.79;;;21.35;28.11
81990;BME280;71485;51.638;-0.182;2024-02-26T09:15:34;99710.59;;;21.34;28.04
81990;BME280;71485;51.638;-0.182;2024-02-26T09:17:59;99721.08;;;21.14;28.10
81990;BME280;71485;51.638;-0.182;2024-02-26T09:20:25;99721.87;;;21.13;28.11
81990;BME280;71485;51.638;-0.182;2024-02-26T09:22:51;99724.89;;;21.34;28.06
81990;BME280;71485;51.638;-0.182;2024-02-26T09:25:18;99735.59;;;21.19;27.96
81990;BME280;71485;51.638;-0.182;2024-02-26T09:27:43;99738.72;;;21.14;28.07
81990;BME280;71485;51.638;-0.182;2024-02-26T09:30:12;99741.75;;;21.09;28.29
81990;BME280;71485;51.638;-0.182;2024-02-26T09:32:34;99752.35;;;21.23;28.62
81990;BME280;71485;51.638;-0.182;2024-02-26T09:34:59;99764.63;;;21.30;28.62
81990;BME280;71485;51.638;-0.182;2024-02-26T09:37:25;99764.83;;;21.16;28.73
81990;BME280;71485;51.638;-0.182;2024-02-26T09:39:53;99769.61;;;21.11;29.12
81990;BME280;71485;51.638;-0.182;2024-02-26T09:42:25;99765.61;;;21.47;28.83
81990;BME280;71485;51.638;-0.182;2024-02-26T09:44:50;99775.12;;;20.76;28.69
81990;BME280;71485;51.638;-0.182;2024-02-26T09:47:12;99783.14;;;21.28;28.63
81990;BME280;71485;51.638;-0.182;2024-02-26T09:49:43;99785.66;;;21.30;29.01
81990;BME280;71485;51.638;-0.182;2024-02-26T09:52:04;99785.98;;;21.04;29.25
81990;BME280;71485;51.638;-0.182;2024-02-26T09:54:24;99793.39;;;21.03;29.20
81990;BME280;71485;51.638;-0.182;2024-02-26T09:56:50;99790.64;;;21.05;29.26
81990;BME280;71485;51.638;-0.182;2024-02-26T09:59:17;99791.49;;;21.02;29.40
81990;BME280;71485;51.638;-0.182;2024-02-26T10:01:42;99807.35;;;20.83;29.45
81990;BME280;71485;51.638;-0.182;2024-02-26T10:04:09;99806.73;;;21.04;29.46
81990;BME280;71485;51.638;-0.182;2024-02-26T10:06:32;99814.37;;;21.27;29.36
81990;BME280;71485;51.638;-0.182;2024-02-26T10:09:00;99827.07;;;20.94;29.18
81990;BME280;71485;51.638;-0.182;2024-02-26T10:11:24;99833.99;;;20.84;29.20
81990;BME280;71485;51.638;-0.182;2024-02-26T10:13:50;99830.93;;;20.73;28.87
81990;BME280;71485;51.638;-0.182;2024-02-26T10:16:17;99839.18;;;21.04;28.95
81990;BME280;71485;51.638;-0.182;2024-02-26T10:18:46;99848.37;;;21.31;28.81
81990;BME280;71485;51.638;-0.182;2024-02-26T10:21:06;99840.62;;;20.74;28.53
81990;BME280;71485;51.638;-0.182;2024-02-26T10:23:32;99848.12;;;20.65;28.54
81990;BME280;71485;51.638;-0.182;2024-02-26T10:25:58;99847.78;;;20.59;28.32
81990;BME280;71485;51.638;-0.182;2024-02-26T10:28:26;99853.20;;;20.74;28.29
81990;BME280;71485;51.638;-0.182;2024-02-26T10:30:51;99857.95;;;20.77;28.26
81990;BME280;71485;51.638;-0.182;2024-02-26T10:33:16;99859.77;;;20.88;28.16
81990;BME280;71485;51.638;-0.182;2024-02-26T10:35:45;99863.47;;;20.49;28.12
81990;BME280;71485;51.638;-0.182;2024-02-26T10:38:12;99867.23;;;20.92;27.88
81990;BME280;71485;51.638;-0.182;2024-02-26T10:40:32;99868.37;;;21.04;27.60
81990;BME280;71485;51.638;-0.182;2024-02-26T10:42:58;99878.80;;;20.91;27.66
81990;BME280;71485;51.638;-0.182;2024-02-26T10:45:23;99878.68;;;20.83;27.60
81990;BME280;71485;51.638;-0.182;2024-02-26T10:47:49;99886.48;;;20.84;27.66
81990;BME280;71485;51.638;-0.182;2024-02-26T10:50:16;99885.91;;;20.88;27.71
81990;BME280;71485;51.638;-0.182;2024-02-26T10:52:40;99895.43;;;20.89;27.71
81990;BME280;71485;51.638;-0.182;2024-02-26T10:55:06;99897.32;;;21.15;27.65
81990;BME280;71485;51.638;-0.182;2024-02-26T10:57:34;99907.38;;;20.69;27.69
81990;BME280;71485;51.638;-0.182;2024-02-26T10:59:59;99919.80;;;20.65;27.77
81990;BME280;71485;51.638;-0.182;2024-02-26T11:02:22;99910.91;;;20.97;27.83
81990;BME280;71485;51.638;-0.182;2024-02-26T11:04:48;99918.81;;;21.14;27.85
81990;BME280;71485;51.638;-0.182;2024-02-26T11:07:14;99935.12;;;21.08;27.63
81990;BME280;71485;51.638;-0.182;2024-02-26T11:09:41;99941.87;;;21.08;27.58
81990;BME280;71485;51.638;-0.182;2024-02-26T11:12:06;99935.65;;;20.70;27.61
81990;BME280;71485;51.638;-0.182;2024-02-26T11:14:31;99939.48;;;20.96;27.65
81990;BME280;71485;51.638;-0.182;2024-02-26T11:16:57;99948.77;;;20.95;27.63
81990;BME280;71485;51.638;-0.182;2024-02-26T11:19:25;99957.24;;;20.94;27.70
81990;BME280;71485;51.638;-0.182;2024-02-26T11:21:48;99959.35;;;20.95;27.55
81990;BME280;71485;51.638;-0.182;2024-02-26T11:24:19;99964.90;;;20.90;27.62
81990;BME280;71485;51.638;-0.182;2024-02-26T11:26:45;99966.99;;;20.80;27.56
81990;BME280;71485;51.638;-0.182;2024-02-26T11:29:07;99971.59;;;21.12;27.58
81990;BME280;71485;51.638;-0.182;2024-02-26T11:31:30;99977.69;;;21.13;27.52
81990;BME280;71485;51.638;-0.182;2024-02-26T11:33:56;99970.37;;;20.95;27.36
81990;BME280;71485;51.638;-0.182;2024-02-26T11:36:24;99978.77;;;20.91;27.28
81990;BME280;71485;51.638;-0.182;2024-02-26T11:38:48;99976.61;;;20.84;27.24
81990;BME280;71485;51.638;-0.182;2024-02-26T11:41:13;99990.09;;;20.79;27.19
81990;BME280;71485;51.638;-0.182;2024-02-26T11:43:50;99991.42;;;21.16;27.26
81990;BME280;71485;51.638;-0.182;2024-02-26T11:46:04;99990.37;;;20.75;27.81
81990;BME280;71485;51.638;-0.182;2024-02-26T11:48:30;99986.87;;;20.84;27.91
81990;BME280;71485;51.638;-0.182;2024-02-26T11:50:57;100000.23;;;20.88;27.88
81990;BME280;71485;51.638;-0.182;2024-02-26T11:53:23;100009.36;;;21.20;27.90
81990;BME280;71485;51.638;-0.182;2024-02-26T11:55:47;100006.39;;;21.05;28.09
81990;BME280;71485;51.638;-0.182;2024-02-26T11:58:13;100011.54;;;21.37;27.98
81990;BME280;71485;51.638;-0.182;2024-02-26T12:00:42;100013.48;;;21.20;28.05
81990;BME280;71485;51.638;-0.182;2024-02-26T12:03:04;100015.60;;;20.95;27.94
81990;BME280;71485;51.638;-0.182;2024-02-26T12:05:32;100009.63;;;21.30;27.97
81990;BME280;71485;51.638;-0.182;2024-02-26T12:08:06;100007.64;;;21.21;27.85
81990;BME280;71485;51.638;-0.182;2024-02-26T12:10:24;100016.17;;;21.00;27.84
81990;BME280;71485;51.638;-0.182;2024-02-26T12:12:47;100013.66;;;21.03;27.77
81990;BME280;71485;51.638;-0.182;2024-02-26T12:15:15;100014.04;;;21.18;27.83
81990;BME280;71485;51.638;-0.182;2024-02-26T12:17:40;100029.95;;;21.07;27.75
81990;BME280;71485;51.638;-0.182;2024-02-26T12:20:09;100032.15;;;21.39;27.62
81990;BME280;71485;51.638;-0.182;2024-02-26T12:22:30;100034.09;;;21.47;27.73
81990;BME280;71485;51.638;-0.182;2024-02-26T12:24:58;100035.76;;;21.50;27.69
81990;BME280;71485;51.638;-0.182;2024-02-26T12:27:21;100051.60;;;21.38;27.62
81990;BME280;71485;51.638;-0.182;2024-02-26T12:29:47;100053.70;;;21.18;27.58
81990;BME280;71485;51.638;-0.182;2024-02-26T12:32:12;100044.28;;;21.53;27.55
81990;BME280;71485;51.638;-0.182;2024-02-26T12:34:39;100058.00;;;21.62;27.43
81990;BME280;71485;51.638;-0.182;2024-02-26T12:37:03;100063.39;;;21.64;27.43
81990;BME280;71485;51.638;-0.182;2024-02-26T12:39:30;100075.14;;;21.70;27.32
81990;BME280;71485;51.638;-0.182;2024-02-26T12:41:57;100070.83;;;21.45;27.31